createdAt,value
2019-03-31T00:00:13.014Z,20.35
2019-03-31T00:01:21.483Z,20.65
2019-03-31T00:02:27.226Z,20.10
2019-03-31T00:03:34.506Z,21.70
2019-03-31T00:04:41.689Z,20.50
2019-03-31T00:05:47.658Z,20.55
2019-03-31T00:06:53.104Z,19.87
2019-03-31T00:07:58.404Z,18.82
2019-03-31T00:09:06.834Z,19.42
2019-03-31T00:10:12.162Z,19.60
2019-03-31T00:11:20.032Z,19.82
2019-03-31T00:12:28.128Z,20.50
2019-03-31T00:13:36.201Z,20.57
2019-03-31T00:14:43.094Z,19.80
2019-03-31T00:15:48.446Z,19.73
2019-03-31T00:16:54.329Z,19.50
2019-03-31T00:18:00.110Z,21.68
2019-03-31T00:19:05.845Z,19.15
2019-03-31T00:20:11.472Z,19.73
2019-03-31T00:21:16.994Z,19.00
2019-03-31T00:22:26.341Z,18.12
2019-03-31T00:23:32.044Z,17.65
2019-03-31T00:24:37.451Z,17.20
2019-03-31T00:25:49.105Z,18.12
2019-03-31T00:26:54.552Z,19.00
2019-03-31T00:28:00.320Z,18.23
2019-03-31T00:29:06.101Z,16.70
2019-03-31T00:30:11.556Z,17.30
2019-03-31T00:31:22.840Z,17.42
2019-03-31T00:32:28.409Z,17.23
2019-03-31T00:33:45.681Z,16.25
2019-03-31T00:34:53.784Z,16.87
2019-03-31T00:35:59.128Z,16.93
2019-03-31T00:37:07.491Z,18.35
2019-03-31T00:38:11.420Z,16.52
2019-03-31T00:39:20.335Z,19.15
2019-03-31T00:40:25.973Z,16.40
2019-03-31T00:41:31.272Z,16.85
2019-03-31T00:42:38.331Z,18.15
2019-03-31T00:43:47.193Z,16.87
2019-03-31T00:44:52.728Z,16.90
2019-03-31T00:45:58.595Z,17.92
2019-03-31T00:47:04.353Z,18.35
2019-03-31T00:48:09.834Z,17.50
2019-03-31T00:49:16.372Z,17.95
2019-03-31T00:50:24.706Z,17.92
2019-03-31T00:51:33.231Z,17.70
2019-03-31T00:52:41.572Z,18.37
2019-03-31T00:53:46.906Z,15.18
2019-03-31T00:54:52.358Z,15.95
2019-03-31T00:55:58.718Z,16.27
2019-03-31T00:57:04.038Z,15.90
2019-03-31T00:58:09.375Z,16.90
2019-03-31T00:59:14.693Z,16.55
2019-03-31T01:00:40.295Z,16.70
2019-03-31T01:01:50.229Z,15.95
2019-03-31T01:02:57.998Z,15.50
2019-03-31T01:04:04.455Z,15.95
2019-03-31T01:05:09.935Z,15.58
2019-03-31T01:06:17.128Z,16.85
2019-03-31T01:07:25.580Z,14.95
2019-03-31T01:08:32.999Z,14.93
2019-03-31T01:09:38.526Z,14.43
2019-03-31T01:10:44.561Z,14.93
2019-03-31T01:11:54.206Z,14.75
2019-03-31T01:12:59.657Z,15.83
2019-03-31T01:14:05.100Z,14.35
2019-03-31T01:15:15.938Z,13.55
2019-03-31T01:16:24.954Z,13.80
2019-03-31T01:17:30.536Z,15.08
2019-03-31T01:18:36.803Z,14.73
2019-03-31T01:19:42.533Z,14.00
2019-03-31T01:20:48.001Z,15.40
2019-03-31T01:21:53.472Z,14.28
2019-03-31T01:23:00.237Z,13.65
2019-03-31T01:24:07.413Z,13.22
2019-03-31T01:25:12.930Z,14.73
2019-03-31T01:26:21.244Z,15.53
2019-03-31T01:27:30.702Z,13.72
2019-03-31T01:28:36.039Z,13.88
2019-03-31T01:29:41.498Z,13.80
2019-03-31T01:30:47.148Z,14.38
2019-03-31T01:31:53.448Z,13.15
2019-03-31T01:32:59.014Z,13.45
2019-03-31T01:34:04.597Z,12.85
2019-03-31T01:35:12.579Z,13.90
2019-03-31T01:36:18.233Z,13.13
2019-03-31T01:37:24.296Z,13.60
2019-03-31T01:38:29.817Z,13.13
2019-03-31T01:39:36.233Z,13.22
2019-03-31T01:40:41.722Z,13.85
2019-03-31T01:41:47.798Z,13.75
2019-03-31T01:42:54.200Z,14.20
2019-03-31T01:43:59.648Z,11.60
2019-03-31T01:45:05.430Z,14.90
2019-03-31T01:46:14.875Z,14.15
2019-03-31T01:47:20.921Z,14.45
2019-03-31T01:48:26.213Z,13.93
2019-03-31T01:49:33.696Z,13.08
2019-03-31T01:50:39.350Z,14.35
2019-03-31T01:51:47.592Z,14.68
2019-03-31T01:52:55.327Z,14.98
2019-03-31T01:54:00.922Z,13.75
2019-03-31T01:55:07.968Z,13.68
2019-03-31T01:56:13.340Z,14.53
2019-03-31T01:57:18.757Z,13.45
2019-03-31T01:58:26.069Z,14.15
2019-03-31T01:59:31.565Z,14.38
2019-03-31T02:00:42.785Z,12.98
2019-03-31T02:01:48.075Z,12.98
2019-03-31T02:02:53.530Z,13.03
2019-03-31T02:03:58.833Z,13.35
2019-03-31T02:05:05.326Z,12.90
2019-03-31T02:06:10.625Z,14.38
2019-03-31T02:07:15.871Z,13.85
2019-03-31T02:08:21.479Z,14.43
2019-03-31T02:09:27.148Z,14.70
2019-03-31T02:10:32.956Z,14.75
2019-03-31T02:11:38.233Z,12.95
2019-03-31T02:12:43.564Z,13.30
2019-03-31T02:13:48.849Z,14.87
2019-03-31T02:14:54.129Z,14.87
2019-03-31T02:15:59.626Z,14.85
2019-03-31T02:17:04.889Z,12.43
2019-03-31T02:18:10.304Z,16.00
2019-03-31T02:19:15.535Z,13.50
2019-03-31T02:20:20.801Z,14.75
2019-03-31T02:21:26.859Z,14.73
2019-03-31T02:22:32.516Z,14.93
2019-03-31T02:23:37.828Z,15.08
2019-03-31T02:24:43.112Z,16.73
2019-03-31T02:25:48.401Z,16.50
2019-03-31T02:26:56.085Z,16.37
2019-03-31T02:28:01.406Z,14.45
2019-03-31T02:29:08.976Z,15.90
2019-03-31T02:30:14.564Z,14.35
2019-03-31T02:31:19.817Z,14.33
2019-03-31T02:32:25.195Z,14.83
2019-03-31T02:33:30.695Z,15.58
2019-03-31T02:34:36.386Z,14.45
2019-03-31T02:35:41.900Z,14.45
2019-03-31T02:36:50.249Z,15.65
2019-03-31T02:37:55.586Z,16.52
2019-03-31T02:39:00.911Z,16.42
2019-03-31T02:40:07.105Z,17.52
2019-03-31T02:41:12.759Z,16.55
2019-03-31T02:42:18.022Z,16.07
2019-03-31T02:43:23.747Z,16.23
2019-03-31T02:44:29.464Z,15.43
2019-03-31T02:45:35.218Z,16.97
2019-03-31T02:46:41.934Z,16.75
2019-03-31T02:47:48.017Z,17.02
2019-03-31T02:48:53.260Z,18.27
2019-03-31T02:49:58.573Z,18.60
2019-03-31T02:51:04.019Z,18.52
2019-03-31T02:52:09.308Z,19.57
2019-03-31T02:53:15.277Z,18.62
2019-03-31T02:54:22.438Z,18.05
2019-03-31T02:55:29.090Z,18.30
2019-03-31T02:56:43.387Z,18.92
2019-03-31T02:57:48.807Z,18.92
2019-03-31T02:58:56.071Z,17.30
2019-03-31T03:00:02.541Z,17.32
2019-03-31T03:01:08.941Z,18.00
2019-03-31T03:02:15.185Z,16.45
2019-03-31T03:03:21.325Z,17.27
2019-03-31T03:04:32.125Z,17.27
2019-03-31T03:05:40.362Z,16.02
2019-03-31T03:06:47.211Z,17.23
2019-03-31T03:07:54.208Z,18.73
2019-03-31T03:09:03.943Z,17.55
2019-03-31T03:10:09.629Z,17.20
2019-03-31T03:11:17.878Z,16.52
2019-03-31T03:12:25.849Z,15.70
2019-03-31T03:13:33.599Z,16.77
2019-03-31T03:14:40.208Z,17.30
2019-03-31T03:16:11.725Z,16.30
2019-03-31T03:17:17.329Z,16.10
2019-03-31T03:18:23.182Z,14.65
2019-03-31T03:19:28.507Z,17.42
2019-03-31T03:20:34.160Z,17.10
2019-03-31T03:21:39.599Z,16.73
2019-03-31T03:22:46.598Z,16.65
2019-03-31T03:23:53.401Z,17.23
2019-03-31T03:24:58.655Z,16.80
2019-03-31T03:26:04.234Z,17.20
2019-03-31T03:27:09.520Z,19.27
2019-03-31T03:28:14.821Z,16.80
2019-03-31T03:29:20.198Z,16.45
2019-03-31T03:30:26.297Z,17.65
2019-03-31T03:31:32.224Z,18.55
2019-03-31T03:32:37.989Z,17.52
2019-03-31T03:33:46.776Z,19.30
2019-03-31T03:34:52.524Z,17.55
2019-03-31T03:35:58.109Z,18.02
2019-03-31T03:37:03.797Z,17.52
2019-03-31T03:38:09.231Z,17.62
2019-03-31T03:39:14.698Z,17.95
2019-03-31T03:40:20.198Z,18.23
2019-03-31T03:41:25.458Z,18.40
2019-03-31T03:42:31.182Z,19.60
2019-03-31T03:43:54.223Z,18.50
2019-03-31T03:44:43.428Z,17.75
2019-03-31T03:45:48.705Z,19.55
2019-03-31T03:46:53.957Z,17.00
2019-03-31T03:48:00.288Z,18.42
2019-03-31T03:49:05.603Z,18.82
2019-03-31T03:50:11.319Z,17.50
2019-03-31T03:51:16.567Z,18.00
2019-03-31T03:52:22.060Z,19.17
2019-03-31T03:53:27.490Z,17.37
2019-03-31T03:54:34.292Z,18.20
2019-03-31T03:55:39.559Z,16.30
2019-03-31T03:56:44.915Z,16.93
2019-03-31T03:57:50.195Z,16.30
2019-03-31T03:58:55.444Z,16.85
2019-03-31T04:00:00.845Z,16.65
2019-03-31T04:01:18.194Z,16.45
2019-03-31T04:02:23.894Z,17.02
2019-03-31T04:03:31.111Z,18.75
2019-03-31T04:04:36.522Z,15.05
2019-03-31T04:05:42.467Z,15.78
2019-03-31T04:06:47.756Z,17.25
2019-03-31T04:07:53.047Z,16.32
2019-03-31T04:08:58.359Z,17.05
2019-03-31T04:10:06.458Z,16.95
2019-03-31T04:11:23.903Z,18.00
2019-03-31T04:12:29.308Z,15.65
2019-03-31T04:13:34.837Z,16.50
2019-03-31T04:14:40.856Z,16.07
2019-03-31T04:15:46.337Z,15.83
2019-03-31T04:16:51.827Z,15.78
2019-03-31T04:17:57.095Z,15.48
2019-03-31T04:19:02.377Z,15.95
2019-03-31T04:20:08.342Z,14.30
2019-03-31T04:21:13.811Z,15.23
2019-03-31T04:22:19.185Z,14.90
2019-03-31T04:23:24.655Z,16.50
2019-03-31T04:24:29.927Z,16.07
2019-03-31T04:25:35.646Z,14.40
2019-03-31T04:26:40.918Z,15.40
2019-03-31T04:27:46.229Z,14.50
2019-03-31T04:28:51.513Z,15.75
2019-03-31T04:29:56.835Z,15.83
2019-03-31T04:31:02.241Z,14.55
2019-03-31T04:32:07.539Z,14.40
2019-03-31T04:33:12.862Z,14.40
2019-03-31T04:34:18.147Z,16.40
2019-03-31T04:35:23.707Z,16.45
2019-03-31T04:36:29.067Z,16.00
2019-03-31T04:37:34.383Z,15.25
2019-03-31T04:39:42.280Z,15.58
2019-03-31T04:40:47.696Z,13.85
2019-03-31T04:41:52.942Z,15.00
2019-03-31T04:42:58.260Z,14.70
2019-03-31T04:44:03.546Z,16.02
2019-03-31T04:45:09.317Z,15.20
2019-03-31T04:46:14.694Z,14.70
2019-03-31T04:47:20.300Z,14.15
2019-03-31T04:48:28.285Z,14.83
2019-03-31T04:49:33.759Z,15.00
2019-03-31T04:50:39.182Z,15.78
2019-03-31T04:51:46.333Z,14.87
2019-03-31T04:52:51.968Z,18.20
2019-03-31T04:53:57.282Z,16.30
2019-03-31T04:55:02.743Z,15.88
2019-03-31T04:56:08.114Z,16.45
2019-03-31T04:57:13.416Z,17.40
2019-03-31T04:58:19.267Z,15.75
2019-03-31T04:59:24.538Z,17.00
2019-03-31T05:00:30.640Z,15.35
2019-03-31T05:01:36.024Z,16.70
2019-03-31T05:02:41.649Z,15.68
2019-03-31T05:03:47.403Z,17.42
2019-03-31T05:04:52.992Z,15.53
2019-03-31T05:05:58.510Z,15.28
2019-03-31T05:07:04.779Z,16.12
2019-03-31T05:08:12.051Z,15.93
2019-03-31T05:09:17.594Z,16.10
2019-03-31T05:10:23.107Z,15.85
2019-03-31T05:11:29.359Z,15.35
2019-03-31T05:12:34.745Z,16.12
2019-03-31T05:13:40.447Z,15.90
2019-03-31T05:14:46.109Z,17.00
2019-03-31T05:15:52.182Z,16.40
2019-03-31T05:16:57.668Z,16.42
2019-03-31T05:18:03.725Z,14.30
2019-03-31T05:19:09.600Z,15.80
2019-03-31T05:20:15.300Z,16.00
2019-03-31T05:21:21.041Z,18.20
2019-03-31T05:22:26.313Z,15.23
2019-03-31T05:23:31.889Z,16.87
2019-03-31T05:24:37.186Z,16.65
2019-03-31T05:25:42.542Z,16.25
2019-03-31T05:26:47.862Z,16.67
2019-03-31T05:27:53.589Z,17.62
2019-03-31T05:28:59.418Z,16.97
2019-03-31T05:30:10.906Z,16.35
2019-03-31T05:31:18.974Z,18.27
2019-03-31T05:32:24.269Z,17.70
2019-03-31T05:33:31.686Z,18.23
2019-03-31T05:34:37.164Z,18.10
2019-03-31T05:35:45.985Z,18.40
2019-03-31T05:36:51.327Z,15.88
2019-03-31T05:37:56.910Z,16.95
2019-03-31T05:39:08.813Z,16.67
2019-03-31T05:40:14.334Z,17.37
2019-03-31T05:41:40.171Z,15.13
2019-03-31T05:42:48.917Z,16.60
2019-03-31T05:44:05.069Z,15.93
2019-03-31T05:45:04.504Z,16.25
2019-03-31T05:46:19.097Z,15.13
2019-03-31T05:47:24.306Z,15.23
2019-03-31T05:48:29.580Z,16.10
2019-03-31T05:49:34.911Z,17.45
2019-03-31T05:50:40.418Z,14.28
2019-03-31T05:51:45.729Z,15.93
2019-03-31T05:52:51.343Z,15.60
2019-03-31T05:53:56.991Z,16.32
2019-03-31T05:55:02.870Z,15.55
2019-03-31T05:56:08.498Z,18.12
2019-03-31T05:57:14.127Z,17.45
2019-03-31T05:58:20.909Z,16.55
2019-03-31T05:59:26.312Z,17.55
2019-03-31T06:00:35.422Z,16.90
2019-03-31T06:01:40.854Z,18.32
2019-03-31T06:02:46.317Z,16.82
2019-03-31T06:03:51.982Z,17.65
2019-03-31T06:04:57.872Z,17.60
2019-03-31T06:06:03.187Z,16.35
2019-03-31T06:07:08.742Z,18.27
2019-03-31T06:08:14.033Z,17.62
2019-03-31T06:09:19.409Z,17.40
2019-03-31T06:10:24.950Z,16.37
2019-03-31T06:11:30.524Z,16.85
2019-03-31T06:12:36.173Z,17.95
2019-03-31T06:13:41.698Z,17.98
2019-03-31T06:14:47.605Z,16.77
2019-03-31T06:15:53.119Z,16.32
2019-03-31T06:16:58.449Z,17.65
2019-03-31T06:18:03.835Z,17.40
2019-03-31T06:19:09.136Z,16.52
2019-03-31T06:20:14.539Z,16.02
2019-03-31T06:21:20.026Z,17.92
2019-03-31T06:22:25.335Z,16.87
2019-03-31T06:23:30.886Z,18.12
2019-03-31T06:24:36.478Z,16.00
2019-03-31T06:25:42.036Z,17.40
2019-03-31T06:26:47.687Z,16.73
2019-03-31T06:27:53.583Z,17.32
2019-03-31T06:28:59.516Z,16.85
2019-03-31T06:30:09.791Z,16.32
2019-03-31T06:31:18.208Z,17.80
2019-03-31T06:32:27.286Z,19.52
2019-03-31T06:33:36.010Z,18.23
2019-03-31T06:34:47.704Z,17.77
2019-03-31T06:35:49.120Z,18.57
2019-03-31T06:36:54.953Z,18.00
2019-03-31T06:38:00.283Z,19.00
2019-03-31T06:39:10.329Z,17.98
2019-03-31T06:40:16.278Z,19.45
2019-03-31T06:41:22.073Z,21.15
2019-03-31T06:42:27.758Z,19.48
2019-03-31T06:43:33.077Z,19.55
2019-03-31T06:44:38.632Z,18.65
2019-03-31T06:45:43.920Z,20.55
2019-03-31T06:46:49.205Z,20.32
2019-03-31T06:47:55.190Z,19.07
2019-03-31T06:49:01.176Z,17.57
2019-03-31T06:50:07.353Z,17.48
2019-03-31T06:51:12.963Z,16.75
2019-03-31T06:52:18.364Z,20.27
2019-03-31T06:53:24.701Z,20.82
2019-03-31T06:54:30.208Z,20.48
2019-03-31T06:55:41.762Z,19.35
2019-03-31T06:57:33.041Z,19.95
2019-03-31T06:58:38.127Z,19.52
2019-03-31T06:59:44.297Z,21.57
2019-03-31T07:00:49.643Z,21.48
2019-03-31T07:01:55.060Z,21.05
2019-03-31T07:03:00.719Z,21.90
2019-03-31T07:04:06.415Z,21.23
2019-03-31T07:05:16.339Z,22.05
2019-03-31T07:06:21.664Z,21.57
2019-03-31T07:07:27.161Z,21.85
2019-03-31T07:08:35.224Z,24.07
2019-03-31T07:09:42.222Z,24.15
2019-03-31T07:10:47.702Z,21.30
2019-03-31T07:11:53.172Z,22.98
2019-03-31T07:12:59.823Z,22.70
2019-03-31T07:14:05.741Z,23.00
2019-03-31T07:15:11.291Z,22.80
2019-03-31T07:16:19.622Z,23.50
2019-03-31T07:17:25.174Z,23.95
2019-03-31T07:18:37.949Z,21.50
2019-03-31T07:19:45.494Z,21.70
2019-03-31T07:20:51.242Z,22.20
2019-03-31T07:22:00.695Z,25.02
2019-03-31T07:23:06.620Z,22.77
2019-03-31T07:24:18.872Z,23.15
2019-03-31T07:25:24.684Z,21.68
2019-03-31T07:26:34.490Z,21.65
2019-03-31T07:27:40.358Z,21.12
2019-03-31T07:28:48.280Z,22.50
2019-03-31T07:29:53.953Z,20.77
2019-03-31T07:31:20.859Z,21.35
2019-03-31T07:32:26.345Z,23.27
2019-03-31T07:33:31.710Z,23.10
2019-03-31T07:34:45.798Z,25.23
2019-03-31T07:35:51.932Z,29.35
2019-03-31T07:37:03.295Z,30.62
2019-03-31T07:38:18.088Z,32.17
2019-03-31T07:39:40.125Z,32.42
2019-03-31T07:41:16.260Z,34.48
2019-03-31T07:42:03.419Z,33.65
2019-03-31T07:43:14.281Z,32.00
2019-03-31T07:44:28.466Z,31.52
2019-03-31T07:45:39.537Z,32.53
2019-03-31T07:46:57.410Z,31.33
2019-03-31T07:48:08.111Z,33.45
2019-03-31T07:49:17.593Z,32.25
2019-03-31T07:50:34.836Z,29.52
2019-03-31T07:52:01.031Z,27.70
2019-03-31T07:53:06.375Z,32.13
2019-03-31T07:54:14.335Z,33.10
2019-03-31T07:55:22.465Z,30.90
2019-03-31T07:56:27.892Z,32.67
2019-03-31T07:57:33.195Z,33.20
2019-03-31T07:58:39.189Z,35.92
2019-03-31T07:59:45.022Z,34.55
2019-03-31T08:00:50.832Z,33.53
2019-03-31T08:01:56.195Z,34.73
2019-03-31T08:03:01.829Z,36.85
2019-03-31T08:04:13.815Z,35.75
2019-03-31T08:05:37.596Z,31.55
2019-03-31T08:06:41.754Z,33.70
2019-03-31T08:07:47.188Z,69.45
2019-03-31T08:08:54.520Z,136.35
2019-03-31T08:10:12.635Z,115.22
2019-03-31T08:11:22.665Z,95.15
2019-03-31T08:12:28.226Z,61.15
2019-03-31T08:13:33.987Z,83.75
2019-03-31T08:14:39.822Z,94.72
2019-03-31T08:15:45.985Z,89.15
2019-03-31T08:16:52.106Z,172.98
2019-03-31T08:17:57.471Z,119.77
2019-03-31T08:19:08.267Z,74.32
2019-03-31T08:20:15.190Z,73.57
2019-03-31T08:21:21.226Z,65.65
2019-03-31T08:22:27.177Z,65.17
2019-03-31T08:23:32.577Z,148.05
2019-03-31T08:24:44.045Z,64.92
2019-03-31T08:25:49.440Z,70.60
2019-03-31T08:26:57.245Z,79.87
2019-03-31T08:28:02.533Z,144.47
2019-03-31T08:29:10.065Z,205.03
2019-03-31T08:30:17.147Z,134.00
2019-03-31T08:31:22.605Z,145.43
2019-03-31T08:32:28.664Z,115.10
2019-03-31T08:33:34.636Z,96.10
2019-03-31T08:34:40.265Z,115.30
2019-03-31T08:35:47.557Z,77.82
2019-03-31T08:36:56.089Z,185.45
2019-03-31T08:38:12.233Z,151.65
2019-03-31T08:39:19.026Z,125.72
2019-03-31T08:40:24.838Z,70.28
2019-03-31T08:54:53.547Z,54.38
2019-03-31T08:55:59.652Z,54.25
2019-03-31T08:57:07.730Z,52.83
2019-03-31T08:58:14.182Z,50.38
2019-03-31T08:59:24.033Z,52.78
2019-03-31T09:00:43.264Z,80.55
2019-03-31T09:01:53.036Z,64.55
2019-03-31T09:02:58.739Z,57.88
2019-03-31T09:04:05.690Z,54.55
2019-03-31T09:05:14.853Z,57.43
2019-03-31T09:06:23.285Z,67.35
2019-03-31T09:07:31.650Z,67.75
2019-03-31T09:08:37.353Z,66.05
2019-03-31T09:09:42.870Z,61.80
2019-03-31T09:10:48.459Z,66.02
2019-03-31T09:11:54.223Z,59.60
2019-03-31T09:13:00.337Z,58.35
2019-03-31T09:14:07.506Z,53.52
2019-03-31T09:15:18.825Z,57.03
2019-03-31T09:16:26.739Z,62.60
2019-03-31T09:17:32.872Z,59.38
2019-03-31T09:18:38.388Z,54.83
2019-03-31T09:19:44.380Z,56.28
2019-03-31T09:20:52.426Z,49.80
2019-03-31T09:21:58.960Z,50.90
2019-03-31T09:23:06.405Z,55.95
2019-03-31T09:24:15.193Z,51.15
2019-03-31T09:25:28.185Z,49.80
2019-03-31T09:26:36.135Z,49.88
2019-03-31T09:27:49.411Z,48.95
2019-03-31T09:29:11.796Z,51.70
2019-03-31T09:30:43.832Z,49.23
2019-03-31T09:32:03.079Z,49.20
2019-03-31T09:33:41.803Z,51.73
2019-03-31T09:34:53.595Z,60.58
2019-03-31T09:36:00.418Z,52.23
2019-03-31T09:37:14.237Z,53.15
2019-03-31T09:38:22.413Z,51.28
2019-03-31T09:39:30.873Z,51.75
2019-03-31T09:40:36.610Z,51.23
2019-03-31T09:41:43.315Z,51.48
2019-03-31T09:42:51.844Z,57.58
2019-03-31T09:43:58.797Z,50.55
2019-03-31T09:45:05.990Z,50.50
2019-03-31T09:46:15.227Z,55.08
2019-03-31T09:47:22.859Z,52.75
2019-03-31T09:48:33.571Z,54.50
2019-03-31T09:49:39.892Z,54.27
2019-03-31T09:50:49.919Z,53.10
2019-03-31T09:51:58.101Z,53.50
2019-03-31T09:53:03.511Z,54.15
2019-03-31T09:54:12.051Z,54.00
2019-03-31T09:55:24.247Z,53.58
2019-03-31T09:56:30.138Z,52.70
2019-03-31T09:57:38.387Z,51.73
2019-03-31T09:58:52.253Z,51.90
2019-03-31T10:00:19.646Z,53.58
2019-03-31T10:01:28.186Z,52.90
2019-03-31T10:02:40.259Z,52.00
2019-03-31T10:03:55.375Z,49.95
2019-03-31T10:05:03.726Z,51.48
2019-03-31T10:06:29.689Z,54.00
2019-03-31T10:07:27.298Z,54.13
2019-03-31T10:08:35.706Z,52.80
2019-03-31T10:09:47.833Z,53.30
2019-03-31T10:10:53.191Z,53.38
2019-03-31T10:12:10.391Z,53.25
2019-03-31T10:13:16.481Z,51.35
2019-03-31T10:14:24.228Z,53.38
2019-03-31T10:15:32.559Z,53.58
2019-03-31T10:16:38.041Z,52.27
2019-03-31T10:17:43.496Z,51.83
2019-03-31T10:21:32.870Z,53.98
2019-03-31T10:22:41.041Z,52.17
2019-03-31T10:23:58.107Z,54.50
2019-03-31T10:25:07.189Z,53.10
2019-03-31T10:26:31.034Z,51.25
2019-03-31T10:27:28.851Z,51.83
2019-03-31T10:28:35.005Z,52.00
2019-03-31T10:29:44.949Z,52.45
2019-03-31T10:30:51.552Z,51.68
2019-03-31T10:32:00.751Z,50.92
2019-03-31T10:33:07.745Z,52.45
2019-03-31T10:34:17.723Z,56.48
2019-03-31T10:35:24.551Z,51.45
2019-03-31T10:36:43.508Z,55.48
2019-03-31T10:37:58.210Z,48.52
2019-03-31T10:39:10.460Z,50.05
2019-03-31T10:40:20.699Z,50.73
2019-03-31T10:41:43.255Z,52.40
2019-03-31T10:42:50.104Z,53.13
2019-03-31T10:43:59.870Z,51.00
2019-03-31T10:45:09.079Z,50.33
2019-03-31T10:46:15.039Z,50.75
2019-03-31T10:47:21.212Z,51.10
2019-03-31T10:48:30.217Z,51.08
2019-03-31T10:49:37.314Z,51.25
2019-03-31T10:50:44.733Z,52.60
2019-03-31T10:51:51.230Z,51.08
2019-03-31T10:53:01.684Z,53.45
2019-03-31T10:54:10.769Z,50.30
2019-03-31T10:55:20.691Z,50.55
2019-03-31T10:56:30.006Z,48.95
2019-03-31T10:57:45.776Z,50.80
2019-03-31T10:59:05.772Z,47.20
2019-03-31T11:00:13.162Z,50.38
2019-03-31T11:01:21.692Z,50.92
2019-03-31T11:02:30.200Z,49.53
2019-03-31T11:04:14.102Z,48.63
2019-03-31T11:05:22.137Z,47.65
2019-03-31T11:06:28.176Z,49.75
2019-03-31T11:07:40.622Z,53.00
2019-03-31T11:09:03.243Z,55.67
2019-03-31T11:10:02.503Z,47.35
2019-03-31T11:11:10.722Z,50.28
2019-03-31T11:12:28.444Z,48.20
2019-03-31T11:13:41.767Z,53.17
2019-03-31T11:15:10.351Z,49.85
2019-03-31T11:16:47.882Z,49.10
2019-03-31T11:17:58.328Z,50.58
2019-03-31T11:19:22.522Z,48.28
2019-03-31T11:20:38.200Z,48.58
2019-03-31T11:21:53.613Z,52.48
2019-03-31T11:23:04.351Z,53.10
2019-03-31T11:24:16.200Z,52.08
2019-03-31T11:25:34.664Z,49.53
2019-03-31T11:26:42.362Z,42.60
2019-03-31T11:27:51.959Z,48.52
2019-03-31T11:29:00.018Z,48.13
2019-03-31T11:30:12.282Z,51.23
2019-03-31T11:31:19.198Z,50.70
2019-03-31T11:32:29.076Z,48.80
2019-03-31T11:33:41.905Z,47.50
2019-03-31T11:35:12.512Z,43.10
2019-03-31T11:36:28.458Z,45.92
2019-03-31T11:37:39.613Z,52.20
2019-03-31T11:38:47.209Z,49.58
2019-03-31T11:41:57.376Z,37.85
2019-03-31T11:43:09.364Z,42.60
2019-03-31T11:44:16.780Z,41.45
2019-03-31T11:45:33.086Z,43.28
2019-03-31T11:46:49.764Z,55.03
2019-03-31T11:48:32.205Z,44.42
2019-03-31T11:49:43.622Z,43.52
2019-03-31T11:51:41.484Z,39.53
2019-03-31T11:52:50.110Z,41.30
2019-03-31T11:53:58.550Z,53.30
2019-03-31T11:55:17.570Z,51.70
2019-03-31T11:56:26.304Z,46.88
2019-03-31T11:57:35.592Z,49.73
2019-03-31T11:58:41.521Z,41.08
2019-03-31T11:59:52.838Z,41.83
2019-03-31T12:01:04.195Z,44.90
2019-03-31T12:02:26.404Z,44.20
2019-03-31T12:03:32.271Z,45.65
2019-03-31T12:04:44.767Z,39.63
2019-03-31T12:05:52.347Z,41.45
2019-03-31T12:07:00.229Z,50.20
2019-03-31T12:08:11.095Z,46.13
2019-03-31T12:09:31.776Z,43.45
2019-03-31T12:10:47.987Z,41.37
2019-03-31T12:12:02.098Z,35.78
2019-03-31T12:13:16.051Z,33.42
2019-03-31T12:14:32.964Z,34.48
2019-03-31T12:15:39.448Z,31.42
2019-03-31T12:16:46.104Z,31.60
2019-03-31T12:17:53.241Z,33.00
2019-03-31T12:18:59.285Z,34.23
2019-03-31T12:20:16.871Z,32.05
2019-03-31T12:21:23.996Z,32.48
2019-03-31T12:22:30.653Z,31.45
2019-03-31T12:23:37.322Z,28.67
2019-03-31T12:25:05.344Z,28.50
2019-03-31T12:26:14.360Z,28.57
2019-03-31T12:27:21.217Z,32.93
2019-03-31T12:28:28.561Z,38.10
2019-03-31T12:30:40.579Z,33.23
2019-03-31T12:31:50.114Z,46.75
2019-03-31T12:32:58.635Z,29.45
2019-03-31T12:34:09.018Z,43.40
2019-03-31T12:35:15.829Z,39.20
2019-03-31T12:36:31.963Z,53.60
2019-03-31T12:38:08.879Z,54.05
2019-03-31T12:41:22.632Z,41.13
2019-03-31T12:42:31.884Z,30.08
2019-03-31T12:43:42.633Z,34.85
2019-03-31T12:44:55.006Z,34.78
2019-03-31T12:46:07.414Z,67.20
2019-03-31T12:47:20.664Z,37.48
2019-03-31T12:48:31.619Z,39.40
2019-03-31T12:49:53.776Z,38.30
2019-03-31T12:51:02.708Z,26.93
2019-03-31T12:52:46.557Z,25.32
2019-03-31T12:53:54.440Z,26.20
2019-03-31T12:55:24.252Z,69.90
2019-03-31T12:56:30.444Z,47.13
2019-03-31T12:57:45.149Z,35.58
2019-03-31T12:58:53.793Z,59.65
2019-03-31T13:00:15.308Z,29.65
2019-03-31T13:01:28.793Z,29.50
2019-03-31T13:02:36.474Z,38.23
2019-03-31T13:03:45.964Z,38.20
2019-03-31T13:04:52.106Z,29.63
2019-03-31T13:06:07.874Z,40.03
2019-03-31T13:07:15.109Z,42.23
2019-03-31T13:08:24.852Z,39.58
2019-03-31T13:09:30.722Z,48.05
2019-03-31T13:10:38.839Z,33.58
2019-03-31T13:11:50.271Z,58.10
2019-03-31T13:12:57.030Z,49.30
2019-03-31T13:14:03.271Z,41.15
2019-03-31T13:15:17.886Z,36.13
2019-03-31T13:16:24.110Z,24.90
2019-03-31T13:17:34.270Z,22.15
2019-03-31T13:18:45.292Z,30.27
2019-03-31T13:19:51.482Z,28.20
2019-03-31T13:20:57.163Z,35.40
2019-03-31T13:22:03.093Z,44.63
2019-03-31T13:23:17.879Z,44.70
2019-03-31T13:24:33.222Z,30.32
2019-03-31T13:25:43.434Z,22.75
2019-03-31T13:26:54.859Z,37.23
2019-03-31T13:28:07.984Z,31.52
2019-03-31T13:29:17.996Z,75.90
2019-03-31T13:30:25.559Z,70.80
2019-03-31T13:31:31.250Z,89.28
2019-03-31T13:32:38.333Z,163.05
2019-03-31T13:33:48.271Z,74.85
2019-03-31T13:34:55.157Z,83.40
2019-03-31T13:36:01.408Z,116.22
2019-03-31T13:37:07.446Z,95.07
2019-03-31T13:38:13.725Z,80.40
2019-03-31T13:39:26.902Z,135.52
2019-03-31T13:40:34.798Z,107.65
2019-03-31T13:41:55.534Z,75.28
2019-03-31T13:43:01.423Z,129.85
2019-03-31T13:44:11.913Z,71.35
2019-03-31T13:45:28.858Z,40.98
2019-03-31T13:46:37.839Z,55.78
2019-03-31T13:47:44.100Z,48.38
2019-03-31T13:48:58.127Z,57.90
2019-03-31T13:50:06.398Z,25.90
2019-03-31T13:51:26.741Z,40.25
2019-03-31T13:52:35.338Z,41.90
2019-03-31T13:53:44.087Z,31.93
2019-03-31T13:55:00.639Z,33.30
2019-03-31T13:56:12.977Z,25.97
2019-03-31T13:57:39.769Z,30.05
2019-03-31T13:58:52.435Z,38.02
2019-03-31T13:59:55.830Z,39.48
2019-03-31T14:01:09.965Z,26.50
2019-03-31T14:02:21.512Z,35.35
2019-03-31T14:03:35.782Z,43.05
2019-03-31T14:04:51.418Z,48.73
2019-03-31T14:05:50.670Z,54.45
2019-03-31T14:07:07.030Z,28.00
2019-03-31T14:08:25.990Z,27.10
2019-03-31T14:09:28.533Z,38.20
2019-03-31T14:10:38.999Z,91.97
2019-03-31T14:11:48.669Z,88.35
2019-03-31T14:12:55.381Z,45.60
2019-03-31T14:14:01.060Z,51.18
2019-03-31T14:15:18.964Z,53.15
2019-03-31T14:16:45.310Z,34.70
2019-03-31T14:17:53.171Z,31.42
2019-03-31T14:19:16.890Z,47.23
2019-03-31T14:20:23.214Z,34.18
2019-03-31T14:21:30.867Z,29.52
2019-03-31T14:22:36.762Z,30.97
2019-03-31T14:23:45.662Z,23.30
2019-03-31T14:25:06.455Z,22.17
2019-03-31T14:26:15.138Z,27.07
2019-03-31T14:27:43.721Z,28.47
2019-03-31T14:28:54.195Z,58.60
2019-03-31T14:30:01.107Z,44.75
2019-03-31T14:31:15.841Z,28.10
2019-03-31T14:32:49.377Z,59.27
2019-03-31T14:34:06.134Z,86.17
2019-03-31T14:35:15.169Z,42.70
2019-03-31T14:36:34.941Z,54.05
2019-03-31T14:37:41.011Z,54.95
2019-03-31T14:38:52.386Z,49.45
2019-03-31T14:40:06.733Z,82.27
2019-03-31T14:41:15.189Z,77.15
2019-03-31T14:42:26.120Z,63.60
2019-03-31T14:43:38.083Z,43.80
2019-03-31T14:44:47.545Z,25.45
2019-03-31T14:46:01.197Z,47.27
2019-03-31T14:47:14.361Z,34.98
2019-03-31T14:48:25.447Z,33.05
2019-03-31T14:50:32.872Z,58.95
2019-03-31T14:51:39.705Z,72.85
2019-03-31T14:53:04.354Z,99.07
2019-03-31T14:54:03.291Z,50.38
2019-03-31T14:55:17.209Z,71.28
2019-03-31T14:56:27.889Z,30.70
2019-03-31T14:57:53.957Z,25.97
2019-03-31T14:59:08.977Z,23.27
2019-03-31T15:00:22.449Z,20.30
2019-03-31T15:01:38.522Z,29.80
2019-03-31T15:02:51.803Z,25.45
2019-03-31T15:04:00.596Z,26.77
2019-03-31T15:05:13.275Z,25.72
2019-03-31T15:06:34.185Z,18.55
2019-03-31T15:07:43.538Z,26.27
2019-03-31T15:08:54.560Z,24.52
2019-03-31T15:10:00.840Z,27.15